< < Back
Terminal Aerodrome Forecast


Current Version              Previous Versions:   1  2  3  4  5  6  7  8  9  

Terminal Aerodrome Forecast

544
FTUS42 KGSP 012300
TAFHKY
TAF
KHKY 012328Z 0200/0224 00000KT P6SM BKN070
     FM020700 00000KT 5SM BR SCT060
     FM021300 20004KT P6SM SCT050=



Latest METAR

289
SAUS70 KWBC 020600 RRF
MTRHKY
METAR KHKY 020553Z AUTO 03003KT 10SM FEW050 FEW070 BKN085 18/16 A3007
RMK AO2 SLP162 T01780161 10217 20172 51002


USA.gov is the U.S. government's official web portal to all federal, state and local government web resources and services.